AirNav   TITAN Aviation Fuels
 
 1484 users online  

31MO Hannah Airport
Bolckow, Missouri, USA

GOING TO BOLCKOW?


FAA INFORMATION EFFECTIVE 03 NOVEMBER 2022

Location

FAA Identifier: 31MO
Lat/Long: 40-06-19.9720N 094-44-35.8780W
40-06.332867N 094-44.597967W
40.1055478,-94.7432994
(estimated)
Elevation: 937 ft. / 285.6 m (surveyed)
Variation: 05E (1985)
From city: 4 miles E of BOLCKOW, MO
Time zone: UTC -6 (UTC -5 during Daylight Saving Time)
Zip code: 64427

Airport Operations

Airport use: Private use. Permission required prior to landing
Activation date: 05/1978
Control tower: no
ARTCC: KANSAS CITY CENTER
FSS: COLUMBIA FLIGHT SERVICE STATION
Attendance: UNATNDD
Wind indicator: yes
Segmented circle: no

Airport Communications

WX AWOS-3PT at EVU (17 nm NW): 118.225 (660-562-9980)

Nearby radio navigation aids

VOR radial/distance  VOR name  Freq  Var
STJr036/12.1ST JOSEPH VORTAC115.5008E

 
NDB name  Hdg/Dist  Freq  Var  ID
AMAZON026/15.323304EAZN .- --.. -.

Airport Services

Runway Information

Runway E/W

Dimensions: 2200 x 50 ft. / 671 x 15 m
Surface: turf
RUNWAY E  RUNWAY W
Traffic pattern: leftleft
Obstructions: roadbldgs
ALSO TREES

Runway N/S

Dimensions: 1300 x 50 ft. / 396 x 15 m
Surface: turf
RUNWAY N  RUNWAY S
Traffic pattern: leftleft

Airport Ownership and Management from official FAA records

Ownership: Privately-owned
Owner: JOHN D. HANNAH, JR.
16377 C R 95
BOLCKOW, MO 64427
Phone 816-428-3725
Manager: JOHN D. HANNAH, JR.
16377 C R 95
BOLCKOW, MO 64427
Phone 816-428-3725

Airport Operational Statistics

Aircraft based on the field: 2
Single engine airplanes: 2
    

Additional Remarks

FOR CD CTC KANSAS CITY ARTCC AT 913-254-8508.

Instrument Procedures

There are no published instrument procedures at 31MO.

Some nearby airports with instrument procedures:

KEVU - Northwest Missouri Regional Airport (17 nm NW)
KSTJ - Rosecrans Memorial Airport (21 nm S)
KEZZ - Cameron Memorial Airport (31 nm SE)
K57 - Gould Peterson Municipal Airport (35 nm NW)
K59 - Amelia Earhart Airport (38 nm SW)
 
Loc | Ops | Rwys | IFR | FBO | Links
Com | Nav | Svcs | Stats | Notes
Area around 31MO (Hannah Airport)
 
Road maps at: MapQuest Bing Google
 
Aerial photo
No photo
 
Sectional chart

 
Airport distance calculator
Flying to Hannah Airport? Find the distance to fly.

From to 31MO

Sunrise and sunset
Times for 29-Nov-2022
 Local
(UTC-6)
 Zulu
(UTC)
Morning civil twilight06:5112:51
Sunrise07:2113:21
Sunset16:5422:54
Evening civil twilight17:2423:24

Current date and time
Zulu (UTC)  29-Nov-2022 17:55:08
Local (UTC-6)  29-Nov-2022 11:55:08
 
METAR
KEVU 
17nm NW 
291735Z AUTO 34019G27KT 3SM -DZ OVC008 01/00 A2953 RMK AO2 T00140000
KSTJ 
22nm S 
291738Z 32017G31KT 10SM OVC013 03/M01 A2954 RMK AO2 PK WND 31033/1726 PRESRR T00281006
KEZZ 
31nm SE 
291735Z AUTO 29027G31KT 10SM SCT039 12/05 A2947 RMK AO2 T01230053
TAF
KSTJ 
22nm S 
291130Z 2912/3012 12008KT P6SM OVC110 WS020/20045KT FM291500 22013G23KT P6SM FEW090 FM291700 30017G25KT P6SM BKN015 FM292100 33018G26KT P6SM BKN022 FM292300 32018G26KT P6SM BKN035
NOTAMs
Click for the latest NOTAMs
NOTAMs are issued by the DoD/FAA and will open in a separate window not controlled by AirNav.

 

 
 

Would you like to see your business listed on this page?

 If your business provides an interesting product or service to pilots, flight crews, aircraft, or users of the Hannah Airport, you should consider listing it here.  To start the listing process, click on the button below
 
Add a business
 

Other Pages about Hannah Airport

Update a link
 
Copyright © AirNav, LLC. All rights reserved. Privacy Policy  Contact